sensor_id;sensor_type;location;lat;lon;timestamp;P1;durP1;ratioP1;P2;durP2;ratioP2
76714;SDS011;65644;44.990;20.288;2022-12-07T00:01:27;48.95;;;17.38;;
76714;SDS011;65644;44.990;20.288;2022-12-07T00:03:54;48.72;;;16.73;;
76714;SDS011;65644;44.990;20.288;2022-12-07T00:06:29;42.47;;;16.58;;
76714;SDS011;65644;44.990;20.288;2022-12-07T00:08:55;41.72;;;17.27;;
76714;SDS011;65644;44.990;20.288;2022-12-07T00:11:22;41.42;;;16.95;;
76714;SDS011;65644;44.990;20.288;2022-12-07T00:13:52;39.50;;;15.63;;
76714;SDS011;65644;44.990;20.288;2022-12-07T00:16:19;35.03;;;15.85;;
76714;SDS011;65644;44.990;20.288;2022-12-07T00:18:46;36.47;;;15.65;;
76714;SDS011;65644;44.990;20.288;2022-12-07T00:21:16;30.77;;;13.80;;
76714;SDS011;65644;44.990;20.288;2022-12-07T00:23:43;28.48;;;13.68;;
76714;SDS011;65644;44.990;20.288;2022-12-07T00:26:10;29.05;;;13.00;;
76714;SDS011;65644;44.990;20.288;2022-12-07T00:28:36;25.88;;;12.43;;
76714;SDS011;65644;44.990;20.288;2022-12-07T00:31:04;22.42;;;10.60;;
76714;SDS011;65644;44.990;20.288;2022-12-07T00:33:30;21.95;;;11.13;;
76714;SDS011;65644;44.990;20.288;2022-12-07T00:35:57;22.83;;;10.50;;
76714;SDS011;65644;44.990;20.288;2022-12-07T00:38:23;24.20;;;10.07;;
76714;SDS011;65644;44.990;20.288;2022-12-07T00:41:00;24.55;;;10.15;;
76714;SDS011;65644;44.990;20.288;2022-12-07T00:43:26;22.05;;;9.32;;
76714;SDS011;65644;44.990;20.288;2022-12-07T00:45:53;24.65;;;10.50;;
76714;SDS011;65644;44.990;20.288;2022-12-07T00:48:20;21.52;;;9.35;;
76714;SDS011;65644;44.990;20.288;2022-12-07T00:50:46;22.10;;;9.60;;
76714;SDS011;65644;44.990;20.288;2022-12-07T00:53:12;17.42;;;9.23;;
76714;SDS011;65644;44.990;20.288;2022-12-07T00:55:38;20.77;;;10.98;;
76714;SDS011;65644;44.990;20.288;2022-12-07T00:58:05;19.08;;;10.30;;
76714;SDS011;65644;44.990;20.288;2022-12-07T01:00:31;22.05;;;10.10;;
76714;SDS011;65644;44.990;20.288;2022-12-07T01:02:57;23.90;;;11.20;;
76714;SDS011;65644;44.990;20.288;2022-12-07T01:05:23;27.33;;;12.70;;
76714;SDS011;65644;44.990;20.288;2022-12-07T01:07:49;30.73;;;13.93;;
76714;SDS011;65644;44.990;20.288;2022-12-07T01:10:15;29.15;;;14.88;;
76714;SDS011;65644;44.990;20.288;2022-12-07T01:12:41;44.78;;;18.27;;
76714;SDS011;65644;44.990;20.288;2022-12-07T01:15:07;48.60;;;18.75;;
76714;SDS011;65644;44.990;20.288;2022-12-07T01:17:33;66.70;;;22.10;;
76714;SDS011;65644;44.990;20.288;2022-12-07T01:19:59;92.68;;;25.10;;
76714;SDS011;65644;44.990;20.288;2022-12-07T01:22:25;84.32;;;26.42;;
76714;SDS011;65644;44.990;20.288;2022-12-07T01:24:51;91.82;;;26.75;;
76714;SDS011;65644;44.990;20.288;2022-12-07T01:27:17;102.15;;;27.90;;
76714;SDS011;65644;44.990;20.288;2022-12-07T01:29:43;105.28;;;28.13;;
76714;SDS011;65644;44.990;20.288;2022-12-07T01:32:10;102.13;;;27.80;;
76714;SDS011;65644;44.990;20.288;2022-12-07T01:34:36;98.60;;;27.70;;
76714;SDS011;65644;44.990;20.288;2022-12-07T01:37:02;95.00;;;26.33;;
76714;SDS011;65644;44.990;20.288;2022-12-07T01:39:28;108.97;;;28.08;;
76714;SDS011;65644;44.990;20.288;2022-12-07T01:41:54;104.18;;;27.95;;
76714;SDS011;65644;44.990;20.288;2022-12-07T01:44:24;91.55;;;27.42;;
76714;SDS011;65644;44.990;20.288;2022-12-07T01:49:29;108.68;;;28.73;;
76714;SDS011;65644;44.990;20.288;2022-12-07T01:52:06;96.45;;;26.83;;
76714;SDS011;65644;44.990;20.288;2022-12-07T01:54:35;87.40;;;27.23;;
76714;SDS011;65644;44.990;20.288;2022-12-07T01:57:01;94.05;;;27.48;;
76714;SDS011;65644;44.990;20.288;2022-12-07T01:59:28;84.65;;;26.40;;
76714;SDS011;65644;44.990;20.288;2022-12-07T02:01:54;69.85;;;25.92;;
76714;SDS011;65644;44.990;20.288;2022-12-07T02:04:21;83.10;;;27.63;;
76714;SDS011;65644;44.990;20.288;2022-12-07T02:06:48;86.53;;;26.33;;
76714;SDS011;65644;44.990;20.288;2022-12-07T02:09:14;77.50;;;26.80;;
76714;SDS011;65644;44.990;20.288;2022-12-07T02:11:40;77.95;;;25.75;;
76714;SDS011;65644;44.990;20.288;2022-12-07T02:14:06;76.43;;;27.55;;
76714;SDS011;65644;44.990;20.288;2022-12-07T02:16:42;70.65;;;25.65;;
76714;SDS011;65644;44.990;20.288;2022-12-07T02:21:51;76.90;;;25.17;;
76714;SDS011;65644;44.990;20.288;2022-12-07T02:32:15;64.28;;;24.92;;
76714;SDS011;65644;44.990;20.288;2022-12-07T02:34:52;70.85;;;25.15;;
76714;SDS011;65644;44.990;20.288;2022-12-07T02:37:25;70.20;;;24.98;;
76714;SDS011;65644;44.990;20.288;2022-12-07T02:39:54;66.07;;;24.23;;
76714;SDS011;65644;44.990;20.288;2022-12-07T02:42:26;74.07;;;25.67;;
76714;SDS011;65644;44.990;20.288;2022-12-07T02:44:54;68.03;;;23.38;;
76714;SDS011;65644;44.990;20.288;2022-12-07T02:47:20;71.25;;;25.73;;
76714;SDS011;65644;44.990;20.288;2022-12-07T02:49:47;65.07;;;24.33;;
76714;SDS011;65644;44.990;20.288;2022-12-07T02:52:14;63.05;;;24.77;;
76714;SDS011;65644;44.990;20.288;2022-12-07T02:54:40;71.63;;;22.90;;
76714;SDS011;65644;44.990;20.288;2022-12-07T03:04:33;71.95;;;24.35;;
76714;SDS011;65644;44.990;20.288;2022-12-07T03:10:14;74.75;;;24.48;;
76714;SDS011;65644;44.990;20.288;2022-12-07T03:12:46;78.60;;;26.67;;
76714;SDS011;65644;44.990;20.288;2022-12-07T03:15:14;71.32;;;26.75;;
76714;SDS011;65644;44.990;20.288;2022-12-07T03:17:42;80.97;;;28.50;;
76714;SDS011;65644;44.990;20.288;2022-12-07T03:20:10;82.18;;;29.58;;
76714;SDS011;65644;44.990;20.288;2022-12-07T03:22:37;78.60;;;29.60;;
76714;SDS011;65644;44.990;20.288;2022-12-07T03:25:06;83.63;;;30.30;;
76714;SDS011;65644;44.990;20.288;2022-12-07T03:27:37;86.50;;;31.00;;
76714;SDS011;65644;44.990;20.288;2022-12-07T03:32:39;78.47;;;28.98;;
76714;SDS011;65644;44.990;20.288;2022-12-07T03:37:34;82.78;;;30.73;;
76714;SDS011;65644;44.990;20.288;2022-12-07T03:42:29;93.00;;;30.88;;
76714;SDS011;65644;44.990;20.288;2022-12-07T03:44:55;94.63;;;33.00;;
76714;SDS011;65644;44.990;20.288;2022-12-07T03:47:32;91.18;;;31.50;;
76714;SDS011;65644;44.990;20.288;2022-12-07T03:50:01;86.97;;;31.38;;
76714;SDS011;65644;44.990;20.288;2022-12-07T03:52:42;88.32;;;31.80;;
76714;SDS011;65644;44.990;20.288;2022-12-07T03:57:42;88.88;;;31.55;;
76714;SDS011;65644;44.990;20.288;2022-12-07T04:00:09;98.32;;;32.78;;
76714;SDS011;65644;44.990;20.288;2022-12-07T04:02:36;89.03;;;30.92;;
76714;SDS011;65644;44.990;20.288;2022-12-07T04:05:02;92.20;;;33.42;;
76714;SDS011;65644;44.990;20.288;2022-12-07T04:07:28;92.05;;;34.30;;
76714;SDS011;65644;44.990;20.288;2022-12-07T04:09:54;92.90;;;36.08;;
76714;SDS011;65644;44.990;20.288;2022-12-07T04:12:21;92.03;;;32.83;;
76714;SDS011;65644;44.990;20.288;2022-12-07T04:14:47;94.55;;;32.88;;
76714;SDS011;65644;44.990;20.288;2022-12-07T04:17:13;85.13;;;32.22;;
76714;SDS011;65644;44.990;20.288;2022-12-07T04:19:39;86.50;;;32.78;;
76714;SDS011;65644;44.990;20.288;2022-12-07T04:22:05;99.35;;;35.95;;
76714;SDS011;65644;44.990;20.288;2022-12-07T04:24:31;89.38;;;33.67;;
76714;SDS011;65644;44.990;20.288;2022-12-07T04:26:57;97.43;;;34.28;;
76714;SDS011;65644;44.990;20.288;2022-12-07T04:29:23;82.93;;;31.92;;
76714;SDS011;65644;44.990;20.288;2022-12-07T04:31:50;87.93;;;32.67;;
76714;SDS011;65644;44.990;20.288;2022-12-07T04:34:16;91.55;;;32.50;;
76714;SDS011;65644;44.990;20.288;2022-12-07T04:36:43;90.57;;;32.75;;
76714;SDS011;65644;44.990;20.288;2022-12-07T04:39:13;89.65;;;32.03;;
76714;SDS011;65644;44.990;20.288;2022-12-07T04:41:43;87.43;;;31.50;;
76714;SDS011;65644;44.990;20.288;2022-12-07T04:44:09;88.90;;;32.30;;
76714;SDS011;65644;44.990;20.288;2022-12-07T04:46:35;90.60;;;31.45;;
76714;SDS011;65644;44.990;20.288;2022-12-07T04:49:01;82.45;;;30.60;;
76714;SDS011;65644;44.990;20.288;2022-12-07T04:51:27;90.32;;;31.27;;
76714;SDS011;65644;44.990;20.288;2022-12-07T04:53:54;89.43;;;29.98;;
76714;SDS011;65644;44.990;20.288;2022-12-07T04:56:20;87.93;;;30.13;;
76714;SDS011;65644;44.990;20.288;2022-12-07T04:58:47;81.28;;;29.92;;
76714;SDS011;65644;44.990;20.288;2022-12-07T05:01:14;75.43;;;28.60;;
76714;SDS011;65644;44.990;20.288;2022-12-07T05:03:40;72.82;;;28.15;;
76714;SDS011;65644;44.990;20.288;2022-12-07T05:06:06;72.82;;;27.60;;
76714;SDS011;65644;44.990;20.288;2022-12-07T05:08:32;73.90;;;29.15;;
76714;SDS011;65644;44.990;20.288;2022-12-07T05:10:59;75.40;;;28.02;;
76714;SDS011;65644;44.990;20.288;2022-12-07T05:13:25;75.95;;;26.65;;
76714;SDS011;65644;44.990;20.288;2022-12-07T05:15:51;66.75;;;26.13;;
76714;SDS011;65644;44.990;20.288;2022-12-07T05:18:17;70.63;;;25.08;;
76714;SDS011;65644;44.990;20.288;2022-12-07T05:20:43;69.80;;;25.55;;
76714;SDS011;65644;44.990;20.288;2022-12-07T05:23:10;73.80;;;26.73;;
76714;SDS011;65644;44.990;20.288;2022-12-07T05:25:36;69.32;;;25.38;;
76714;SDS011;65644;44.990;20.288;2022-12-07T05:28:02;70.18;;;26.48;;
76714;SDS011;65644;44.990;20.288;2022-12-07T05:30:28;60.88;;;23.67;;
76714;SDS011;65644;44.990;20.288;2022-12-07T05:32:55;60.53;;;23.10;;
76714;SDS011;65644;44.990;20.288;2022-12-07T05:35:21;66.78;;;24.67;;
76714;SDS011;65644;44.990;20.288;2022-12-07T05:37:47;55.03;;;22.20;;
76714;SDS011;65644;44.990;20.288;2022-12-07T05:40:13;59.80;;;23.42;;
76714;SDS011;65644;44.990;20.288;2022-12-07T05:42:40;58.50;;;21.95;;
76714;SDS011;65644;44.990;20.288;2022-12-07T05:45:06;56.78;;;23.30;;
76714;SDS011;65644;44.990;20.288;2022-12-07T05:47:32;56.10;;;22.10;;
76714;SDS011;65644;44.990;20.288;2022-12-07T05:49:58;56.00;;;22.88;;
76714;SDS011;65644;44.990;20.288;2022-12-07T05:52:24;53.65;;;21.02;;
76714;SDS011;65644;44.990;20.288;2022-12-07T05:54:51;54.20;;;21.80;;
76714;SDS011;65644;44.990;20.288;2022-12-07T05:57:17;51.72;;;20.92;;
76714;SDS011;65644;44.990;20.288;2022-12-07T05:59:43;56.78;;;21.00;;
76714;SDS011;65644;44.990;20.288;2022-12-07T06:02:12;51.97;;;20.30;;
76714;SDS011;65644;44.990;20.288;2022-12-07T06:04:41;49.20;;;19.98;;
76714;SDS011;65644;44.990;20.288;2022-12-07T06:07:07;56.20;;;19.90;;
76714;SDS011;65644;44.990;20.288;2022-12-07T06:09:33;52.50;;;19.67;;
76714;SDS011;65644;44.990;20.288;2022-12-07T06:11:59;42.45;;;17.95;;
76714;SDS011;65644;44.990;20.288;2022-12-07T06:14:44;47.83;;;20.33;;
76714;SDS011;65644;44.990;20.288;2022-12-07T06:17:11;45.35;;;17.88;;
76714;SDS011;65644;44.990;20.288;2022-12-07T06:19:37;42.33;;;18.13;;
76714;SDS011;65644;44.990;20.288;2022-12-07T06:22:04;41.38;;;16.77;;
76714;SDS011;65644;44.990;20.288;2022-12-07T06:24:30;42.63;;;17.75;;
76714;SDS011;65644;44.990;20.288;2022-12-07T06:26:57;34.80;;;16.17;;
76714;SDS011;65644;44.990;20.288;2022-12-07T06:29:23;33.45;;;15.82;;
76714;SDS011;65644;44.990;20.288;2022-12-07T06:31:49;35.25;;;16.10;;
76714;SDS011;65644;44.990;20.288;2022-12-07T06:34:16;35.00;;;16.25;;
76714;SDS011;65644;44.990;20.288;2022-12-07T06:36:43;34.38;;;15.73;;
76714;SDS011;65644;44.990;20.288;2022-12-07T06:39:09;33.35;;;14.68;;
76714;SDS011;65644;44.990;20.288;2022-12-07T06:41:36;36.08;;;15.98;;
76714;SDS011;65644;44.990;20.288;2022-12-07T06:44:02;35.92;;;15.63;;
76714;SDS011;65644;44.990;20.288;2022-12-07T06:46:29;30.90;;;13.63;;
76714;SDS011;65644;44.990;20.288;2022-12-07T06:48:55;33.97;;;16.02;;
76714;SDS011;65644;44.990;20.288;2022-12-07T06:51:21;34.13;;;15.93;;
76714;SDS011;65644;44.990;20.288;2022-12-07T06:53:47;35.10;;;15.27;;
76714;SDS011;65644;44.990;20.288;2022-12-07T06:56:13;33.70;;;15.73;;
76714;SDS011;65644;44.990;20.288;2022-12-07T06:58:39;32.80;;;14.40;;
76714;SDS011;65644;44.990;20.288;2022-12-07T07:01:12;35.17;;;15.80;;
76714;SDS011;65644;44.990;20.288;2022-12-07T07:03:38;30.02;;;16.00;;
76714;SDS011;65644;44.990;20.288;2022-12-07T07:06:05;39.95;;;17.33;;
76714;SDS011;65644;44.990;20.288;2022-12-07T07:08:32;36.28;;;16.10;;
76714;SDS011;65644;44.990;20.288;2022-12-07T07:10:58;32.88;;;15.48;;
76714;SDS011;65644;44.990;20.288;2022-12-07T07:13:24;30.35;;;14.63;;
76714;SDS011;65644;44.990;20.288;2022-12-07T07:15:50;39.05;;;18.58;;
76714;SDS011;65644;44.990;20.288;2022-12-07T07:18:16;43.17;;;24.00;;
76714;SDS011;65644;44.990;20.288;2022-12-07T07:20:43;52.30;;;26.70;;
76714;SDS011;65644;44.990;20.288;2022-12-07T07:23:09;40.05;;;20.40;;
76714;SDS011;65644;44.990;20.288;2022-12-07T07:25:35;31.50;;;16.83;;
76714;SDS011;65644;44.990;20.288;2022-12-07T07:28:01;26.98;;;13.68;;
76714;SDS011;65644;44.990;20.288;2022-12-07T07:30:27;26.02;;;14.25;;
76714;SDS011;65644;44.990;20.288;2022-12-07T07:32:57;33.35;;;17.98;;
76714;SDS011;65644;44.990;20.288;2022-12-07T07:35:24;31.42;;;16.90;;
76714;SDS011;65644;44.990;20.288;2022-12-07T07:37:50;29.92;;;16.83;;
76714;SDS011;65644;44.990;20.288;2022-12-07T07:40:16;30.00;;;16.85;;
76714;SDS011;65644;44.990;20.288;2022-12-07T07:42:42;25.35;;;13.40;;
76714;SDS011;65644;44.990;20.288;2022-12-07T07:45:08;25.30;;;12.65;;
76714;SDS011;65644;44.990;20.288;2022-12-07T07:47:34;24.63;;;12.35;;
76714;SDS011;65644;44.990;20.288;2022-12-07T07:50:00;26.83;;;11.77;;
76714;SDS011;65644;44.990;20.288;2022-12-07T07:52:26;24.23;;;12.10;;
76714;SDS011;65644;44.990;20.288;2022-12-07T07:54:52;24.80;;;11.95;;
76714;SDS011;65644;44.990;20.288;2022-12-07T07:57:18;30.92;;;14.27;;
76714;SDS011;65644;44.990;20.288;2022-12-07T07:59:44;26.98;;;13.90;;
76714;SDS011;65644;44.990;20.288;2022-12-07T08:02:15;25.42;;;12.95;;
76714;SDS011;65644;44.990;20.288;2022-12-07T08:04:41;24.48;;;12.75;;
76714;SDS011;65644;44.990;20.288;2022-12-07T08:07:08;21.38;;;11.95;;
76714;SDS011;65644;44.990;20.288;2022-12-07T08:09:34;30.50;;;17.23;;
76714;SDS011;65644;44.990;20.288;2022-12-07T08:12:00;26.85;;;14.05;;
76714;SDS011;65644;44.990;20.288;2022-12-07T08:14:26;25.25;;;12.43;;
76714;SDS011;65644;44.990;20.288;2022-12-07T08:16:53;27.83;;;14.07;;
76714;SDS011;65644;44.990;20.288;2022-12-07T08:19:19;30.60;;;15.65;;
76714;SDS011;65644;44.990;20.288;2022-12-07T08:21:46;35.95;;;16.88;;
76714;SDS011;65644;44.990;20.288;2022-12-07T08:24:12;39.05;;;20.02;;
76714;SDS011;65644;44.990;20.288;2022-12-07T08:26:38;33.63;;;15.65;;
76714;SDS011;65644;44.990;20.288;2022-12-07T08:29:04;32.75;;;14.38;;
76714;SDS011;65644;44.990;20.288;2022-12-07T08:31:30;24.15;;;11.57;;
76714;SDS011;65644;44.990;20.288;2022-12-07T08:33:56;25.80;;;12.18;;
76714;SDS011;65644;44.990;20.288;2022-12-07T08:36:22;23.10;;;12.18;;
76714;SDS011;65644;44.990;20.288;2022-12-07T08:38:49;26.30;;;12.70;;
76714;SDS011;65644;44.990;20.288;2022-12-07T08:41:15;25.65;;;12.45;;
76714;SDS011;65644;44.990;20.288;2022-12-07T08:43:41;36.10;;;12.80;;
76714;SDS011;65644;44.990;20.288;2022-12-07T08:46:11;31.05;;;15.50;;
76714;SDS011;65644;44.990;20.288;2022-12-07T08:48:40;27.20;;;14.50;;
76714;SDS011;65644;44.990;20.288;2022-12-07T08:51:06;33.65;;;16.98;;
76714;SDS011;65644;44.990;20.288;2022-12-07T08:53:33;33.88;;;17.73;;
76714;SDS011;65644;44.990;20.288;2022-12-07T08:55:59;25.67;;;14.40;;
76714;SDS011;65644;44.990;20.288;2022-12-07T08:58:25;27.15;;;14.40;;
76714;SDS011;65644;44.990;20.288;2022-12-07T09:00:52;37.33;;;20.05;;
76714;SDS011;65644;44.990;20.288;2022-12-07T09:03:18;38.30;;;20.60;;
76714;SDS011;65644;44.990;20.288;2022-12-07T09:05:44;43.92;;;21.88;;
76714;SDS011;65644;44.990;20.288;2022-12-07T09:08:10;33.42;;;15.93;;
76714;SDS011;65644;44.990;20.288;2022-12-07T09:10:37;28.60;;;14.75;;
76714;SDS011;65644;44.990;20.288;2022-12-07T09:13:03;35.95;;;19.35;;
76714;SDS011;65644;44.990;20.288;2022-12-07T09:15:29;35.67;;;19.58;;
76714;SDS011;65644;44.990;20.288;2022-12-07T09:17:56;35.55;;;17.70;;
76714;SDS011;65644;44.990;20.288;2022-12-07T09:20:22;32.15;;;16.58;;
76714;SDS011;65644;44.990;20.288;2022-12-07T09:22:48;41.20;;;20.27;;
76714;SDS011;65644;44.990;20.288;2022-12-07T09:25:14;62.00;;;28.60;;
76714;SDS011;65644;44.990;20.288;2022-12-07T09:27:41;59.08;;;26.65;;
76714;SDS011;65644;44.990;20.288;2022-12-07T09:30:07;32.83;;;17.13;;
76714;SDS011;65644;44.990;20.288;2022-12-07T09:32:33;36.35;;;16.70;;
76714;SDS011;65644;44.990;20.288;2022-12-07T09:34:59;36.03;;;18.30;;
76714;SDS011;65644;44.990;20.288;2022-12-07T09:37:25;39.03;;;21.08;;
76714;SDS011;65644;44.990;20.288;2022-12-07T09:39:51;44.42;;;24.90;;
76714;SDS011;65644;44.990;20.288;2022-12-07T09:42:26;57.15;;;28.60;;
76714;SDS011;65644;44.990;20.288;2022-12-07T09:47:18;72.55;;;33.55;;
76714;SDS011;65644;44.990;20.288;2022-12-07T09:49:44;52.78;;;27.38;;
76714;SDS011;65644;44.990;20.288;2022-12-07T09:52:18;51.97;;;27.20;;
76714;SDS011;65644;44.990;20.288;2022-12-07T09:54:49;47.08;;;25.42;;
76714;SDS011;65644;44.990;20.288;2022-12-07T09:57:15;49.40;;;24.08;;
76714;SDS011;65644;44.990;20.288;2022-12-07T09:59:41;45.83;;;24.52;;
76714;SDS011;65644;44.990;20.288;2022-12-07T10:02:22;51.53;;;26.05;;
76714;SDS011;65644;44.990;20.288;2022-12-07T10:04:49;49.28;;;25.90;;
76714;SDS011;65644;44.990;20.288;2022-12-07T10:07:15;66.10;;;34.55;;
76714;SDS011;65644;44.990;20.288;2022-12-07T10:09:41;65.82;;;33.08;;
76714;SDS011;65644;44.990;20.288;2022-12-07T10:12:08;63.88;;;35.83;;
76714;SDS011;65644;44.990;20.288;2022-12-07T10:14:36;72.60;;;38.50;;
76714;SDS011;65644;44.990;20.288;2022-12-07T10:17:08;90.80;;;45.70;;
76714;SDS011;65644;44.990;20.288;2022-12-07T10:19:49;71.25;;;36.75;;
76714;SDS011;65644;44.990;20.288;2022-12-07T10:22:16;75.38;;;39.55;;
76714;SDS011;65644;44.990;20.288;2022-12-07T10:24:42;81.30;;;43.80;;
76714;SDS011;65644;44.990;20.288;2022-12-07T10:27:22;58.88;;;33.03;;
76714;SDS011;65644;44.990;20.288;2022-12-07T10:29:52;51.28;;;26.70;;
76714;SDS011;65644;44.990;20.288;2022-12-07T10:34:44;55.65;;;29.25;;
76714;SDS011;65644;44.990;20.288;2022-12-07T10:39:40;58.20;;;33.88;;
76714;SDS011;65644;44.990;20.288;2022-12-07T10:42:09;47.00;;;26.50;;
76714;SDS011;65644;44.990;20.288;2022-12-07T10:44:41;48.72;;;28.85;;
76714;SDS011;65644;44.990;20.288;2022-12-07T10:52:41;74.63;;;39.42;;
76714;SDS011;65644;44.990;20.288;2022-12-07T10:55:13;61.70;;;33.95;;
76714;SDS011;65644;44.990;20.288;2022-12-07T11:00:27;76.25;;;39.55;;
76714;SDS011;65644;44.990;20.288;2022-12-07T11:08:33;69.93;;;36.70;;
76714;SDS011;65644;44.990;20.288;2022-12-07T11:11:16;66.22;;;34.38;;
76714;SDS011;65644;44.990;20.288;2022-12-07T11:27:16;64.97;;;34.22;;
76714;SDS011;65644;44.990;20.288;2022-12-07T11:29:54;50.97;;;28.98;;
76714;SDS011;65644;44.990;20.288;2022-12-07T11:37:24;50.55;;;28.88;;
76714;SDS011;65644;44.990;20.288;2022-12-07T11:39:54;50.92;;;28.10;;
76714;SDS011;65644;44.990;20.288;2022-12-07T11:42:26;45.53;;;27.70;;
76714;SDS011;65644;44.990;20.288;2022-12-07T11:44:55;42.42;;;25.45;;
76714;SDS011;65644;44.990;20.288;2022-12-07T11:52:30;47.78;;;27.83;;
76714;SDS011;65644;44.990;20.288;2022-12-07T11:54:58;39.00;;;23.00;;
76714;SDS011;65644;44.990;20.288;2022-12-07T11:57:32;40.85;;;23.98;;
76714;SDS011;65644;44.990;20.288;2022-12-07T12:00:01;44.38;;;27.27;;
76714;SDS011;65644;44.990;20.288;2022-12-07T12:02:31;51.72;;;32.60;;
76714;SDS011;65644;44.990;20.288;2022-12-07T12:05:04;48.92;;;30.45;;
76714;SDS011;65644;44.990;20.288;2022-12-07T12:07:31;34.95;;;23.27;;
76714;SDS011;65644;44.990;20.288;2022-12-07T12:10:13;39.67;;;22.80;;
76714;SDS011;65644;44.990;20.288;2022-12-07T12:20:29;46.72;;;28.98;;
76714;SDS011;65644;44.990;20.288;2022-12-07T12:25:45;31.48;;;18.60;;
76714;SDS011;65644;44.990;20.288;2022-12-07T12:28:20;31.27;;;19.42;;
76714;SDS011;65644;44.990;20.288;2022-12-07T12:31:03;32.05;;;20.05;;
76714;SDS011;65644;44.990;20.288;2022-12-07T12:33:29;41.97;;;24.98;;
76714;SDS011;65644;44.990;20.288;2022-12-07T12:43:44;39.38;;;24.30;;
76714;SDS011;65644;44.990;20.288;2022-12-07T12:54:14;95.18;;;51.55;;
76714;SDS011;65644;44.990;20.288;2022-12-07T13:04:40;49.50;;;27.95;;
76714;SDS011;65644;44.990;20.288;2022-12-07T13:07:47;44.40;;;27.05;;
76714;SDS011;65644;44.990;20.288;2022-12-07T13:10:00;39.10;;;22.67;;
76714;SDS011;65644;44.990;20.288;2022-12-07T13:12:27;43.10;;;26.45;;
76714;SDS011;65644;44.990;20.288;2022-12-07T13:14:57;59.80;;;34.88;;
76714;SDS011;65644;44.990;20.288;2022-12-07T13:19:58;59.28;;;34.78;;
76714;SDS011;65644;44.990;20.288;2022-12-07T13:25:11;45.65;;;27.50;;
76714;SDS011;65644;44.990;20.288;2022-12-07T13:27:37;43.90;;;25.80;;
76714;SDS011;65644;44.990;20.288;2022-12-07T13:30:19;44.38;;;27.13;;
76714;SDS011;65644;44.990;20.288;2022-12-07T13:32:55;51.47;;;31.98;;
76714;SDS011;65644;44.990;20.288;2022-12-07T13:37:53;57.67;;;35.10;;
76714;SDS011;65644;44.990;20.288;2022-12-07T13:40:20;58.00;;;35.70;;
76714;SDS011;65644;44.990;20.288;2022-12-07T13:42:47;72.22;;;43.15;;
76714;SDS011;65644;44.990;20.288;2022-12-07T13:45:32;55.50;;;33.67;;
76714;SDS011;65644;44.990;20.288;2022-12-07T13:50:52;64.53;;;36.45;;
76714;SDS011;65644;44.990;20.288;2022-12-07T13:53:18;50.70;;;30.85;;
76714;SDS011;65644;44.990;20.288;2022-12-07T13:55:45;49.63;;;30.73;;
76714;SDS011;65644;44.990;20.288;2022-12-07T13:58:11;50.05;;;29.27;;
76714;SDS011;65644;44.990;20.288;2022-12-07T14:00:37;49.55;;;33.03;;
76714;SDS011;65644;44.990;20.288;2022-12-07T14:05:37;54.10;;;31.35;;
76714;SDS011;65644;44.990;20.288;2022-12-07T14:13:03;47.92;;;31.27;;
76714;SDS011;65644;44.990;20.288;2022-12-07T14:15:30;45.75;;;29.63;;
76714;SDS011;65644;44.990;20.288;2022-12-07T14:17:57;43.45;;;26.70;;
76714;SDS011;65644;44.990;20.288;2022-12-07T14:20:35;41.10;;;25.83;;
76714;SDS011;65644;44.990;20.288;2022-12-07T14:23:02;42.70;;;25.08;;
76714;SDS011;65644;44.990;20.288;2022-12-07T14:25:44;39.88;;;23.63;;
76714;SDS011;65644;44.990;20.288;2022-12-07T14:28:23;41.92;;;27.30;;
76714;SDS011;65644;44.990;20.288;2022-12-07T14:30:50;34.28;;;22.85;;
76714;SDS011;65644;44.990;20.288;2022-12-07T14:33:16;38.90;;;24.05;;
76714;SDS011;65644;44.990;20.288;2022-12-07T14:35:43;38.20;;;24.75;;
76714;SDS011;65644;44.990;20.288;2022-12-07T14:38:09;41.53;;;26.92;;
76714;SDS011;65644;44.990;20.288;2022-12-07T14:40:35;47.70;;;31.23;;
76714;SDS011;65644;44.990;20.288;2022-12-07T14:43:03;50.15;;;31.92;;
76714;SDS011;65644;44.990;20.288;2022-12-07T14:45:31;51.70;;;31.85;;
76714;SDS011;65644;44.990;20.288;2022-12-07T14:47:57;49.03;;;30.27;;
76714;SDS011;65644;44.990;20.288;2022-12-07T14:50:24;55.53;;;35.10;;
76714;SDS011;65644;44.990;20.288;2022-12-07T14:52:52;63.25;;;40.88;;
76714;SDS011;65644;44.990;20.288;2022-12-07T14:55:23;54.70;;;36.22;;
76714;SDS011;65644;44.990;20.288;2022-12-07T14:57:49;61.80;;;40.35;;
76714;SDS011;65644;44.990;20.288;2022-12-07T15:00:16;60.33;;;37.92;;
76714;SDS011;65644;44.990;20.288;2022-12-07T15:02:46;62.45;;;39.45;;
76714;SDS011;65644;44.990;20.288;2022-12-07T15:05:13;98.13;;;56.05;;
76714;SDS011;65644;44.990;20.288;2022-12-07T15:07:39;74.13;;;44.90;;
76714;SDS011;65644;44.990;20.288;2022-12-07T15:10:09;63.03;;;38.67;;
76714;SDS011;65644;44.990;20.288;2022-12-07T15:12:38;86.20;;;48.95;;
76714;SDS011;65644;44.990;20.288;2022-12-07T15:15:04;114.88;;;63.45;;
76714;SDS011;65644;44.990;20.288;2022-12-07T15:17:30;83.28;;;48.80;;
76714;SDS011;65644;44.990;20.288;2022-12-07T15:19:56;112.65;;;60.92;;
76714;SDS011;65644;44.990;20.288;2022-12-07T15:22:22;108.00;;;60.85;;
76714;SDS011;65644;44.990;20.288;2022-12-07T15:24:49;72.28;;;41.85;;
76714;SDS011;65644;44.990;20.288;2022-12-07T15:27:15;51.75;;;30.63;;
76714;SDS011;65644;44.990;20.288;2022-12-07T15:29:41;53.60;;;33.17;;
76714;SDS011;65644;44.990;20.288;2022-12-07T15:32:07;65.43;;;36.05;;
76714;SDS011;65644;44.990;20.288;2022-12-07T15:34:33;63.75;;;34.92;;
76714;SDS011;65644;44.990;20.288;2022-12-07T15:36:59;63.20;;;36.60;;
76714;SDS011;65644;44.990;20.288;2022-12-07T15:39:25;62.33;;;36.50;;
76714;SDS011;65644;44.990;20.288;2022-12-07T15:41:51;47.80;;;28.20;;
76714;SDS011;65644;44.990;20.288;2022-12-07T15:44:17;50.50;;;32.20;;
76714;SDS011;65644;44.990;20.288;2022-12-07T15:47:02;113.78;;;68.55;;
76714;SDS011;65644;44.990;20.288;2022-12-07T15:49:29;106.57;;;66.13;;
76714;SDS011;65644;44.990;20.288;2022-12-07T15:51:56;116.00;;;74.43;;
76714;SDS011;65644;44.990;20.288;2022-12-07T15:54:23;95.22;;;58.70;;
76714;SDS011;65644;44.990;20.288;2022-12-07T15:56:49;79.63;;;48.05;;
76714;SDS011;65644;44.990;20.288;2022-12-07T15:59:15;93.47;;;60.15;;
76714;SDS011;65644;44.990;20.288;2022-12-07T16:01:41;75.93;;;49.95;;
76714;SDS011;65644;44.990;20.288;2022-12-07T16:04:07;51.45;;;33.55;;
76714;SDS011;65644;44.990;20.288;2022-12-07T16:06:34;41.08;;;27.00;;
76714;SDS011;65644;44.990;20.288;2022-12-07T16:09:00;39.63;;;24.88;;
76714;SDS011;65644;44.990;20.288;2022-12-07T16:11:26;41.30;;;26.05;;
76714;SDS011;65644;44.990;20.288;2022-12-07T16:13:52;40.65;;;26.42;;
76714;SDS011;65644;44.990;20.288;2022-12-07T16:16:18;44.83;;;27.52;;
76714;SDS011;65644;44.990;20.288;2022-12-07T16:18:46;50.67;;;30.73;;
76714;SDS011;65644;44.990;20.288;2022-12-07T16:21:13;53.55;;;33.97;;
76714;SDS011;65644;44.990;20.288;2022-12-07T16:23:39;74.53;;;49.63;;